Time;durP1;ratioP1;P1;durP2;ratioP2;P2;SDS_P1;SDS_P2;PMS_P1;PMS_P2;Temp;Humidity;BMP_temperature;BMP_pressure;BME280_temperature;BME280_humidity;BME280_pressure;Samples;Min_cycle;Max_cycle;Signal;HPM_P1;HPM_P2
2022/04/14 00:01:26;;;;;;;36.50;16.50;;;;;;;8.43;54.46;100612.50;106239;1273;24201;-54
2022/04/14 00:03:58;;;;;;;35.50;17.30;;;;;;;8.40;54.49;100607.91;106103;1273;22544;-55
2022/04/14 00:06:30;;;;;;;36.60;17.70;;;;;;;8.38;54.45;100606.76;106283;1273;22552;-53
2022/04/14 00:09:02;;;;;;;38.00;17.30;;;;;;;8.35;54.56;100607.96;106076;1273;22570;-53
2022/04/14 00:11:34;;;;;;;36.10;16.50;;;;;;;8.32;54.53;100607.37;106330;1273;22557;-53
2022/04/14 00:14:05;;;;;;;37.90;16.50;;;;;;;8.29;54.66;100599.94;106079;1274;22641;-56
2022/04/14 00:16:37;;;;;;;37.50;17.20;;;;;;;8.26;54.72;100596.39;106238;1273;22627;-54
2022/04/14 00:19:09;;;;;;;39.70;18.70;;;;;;;8.23;54.78;100595.98;106144;1273;24315;-56
2022/04/14 00:21:41;;;;;;;40.90;18.60;;;;;;;8.20;54.87;100599.77;106058;1273;22532;-55
2022/04/14 00:24:13;;;;;;;35.50;16.40;;;;;;;8.18;54.87;100596.56;106042;1273;24307;-54
2022/04/14 00:26:45;;;;;;;38.80;18.00;;;;;;;8.16;54.89;100595.22;106120;1273;25335;-52
2022/04/14 00:29:17;;;;;;;38.40;18.00;;;;;;;8.14;54.97;100594.99;106197;1273;22529;-51
2022/04/14 00:31:49;;;;;;;37.80;17.60;;;;;;;8.11;55.00;100591.41;106122;1273;22935;-56
2022/04/14 00:34:21;;;;;;;43.80;19.40;;;;;;;8.09;55.11;100600.80;106322;1273;22578;-51
2022/04/14 00:36:53;;;;;;;36.50;18.20;;;;;;;8.06;55.16;100602.52;106166;1273;24044;-55
2022/04/14 00:39:24;;;;;;;44.00;19.40;;;;;;;8.03;55.16;100606.81;106302;1273;25368;-51
2022/04/14 00:41:56;;;;;;;38.40;19.50;;;;;;;8.01;55.19;100607.70;106180;1273;22630;-55
2022/04/14 00:44:27;;;;;;;38.20;18.90;;;;;;;7.99;55.30;100606.33;106182;1274;22551;-55
2022/04/14 00:46:59;;;;;;;43.90;19.70;;;;;;;7.98;55.32;100605.35;106241;1273;22545;-53
2022/04/14 00:49:31;;;;;;;42.70;21.50;;;;;;;7.96;55.29;100601.52;106213;1273;24295;-54
2022/04/14 00:52:03;;;;;;;38.60;18.30;;;;;;;7.94;55.42;100601.29;106206;1273;24213;-53
2022/04/14 00:54:35;;;;;;;39.60;19.00;;;;;;;7.92;55.45;100600.63;106207;1273;22547;-50
2022/04/14 00:57:07;;;;;;;43.80;19.50;;;;;;;7.91;55.45;100599.80;106234;1273;25531;-51
2022/04/14 00:59:39;;;;;;;41.70;18.80;;;;;;;7.89;55.42;100604.70;106113;1274;24280;-55
2022/04/14 01:02:10;;;;;;;40.30;19.40;;;;;;;7.89;55.51;100601.95;106072;1274;24248;-51
2022/04/14 01:04:44;;;;;;;42.20;19.90;;;;;;;7.86;55.51;100602.61;106205;1273;24386;-54
2022/04/14 01:07:16;;;;;;;39.70;17.80;;;;;;;7.84;55.56;100603.14;106061;1273;25566;-54
2022/04/14 01:09:49;;;;;;;37.70;16.90;;;;;;;7.82;55.55;100603.60;106240;1273;25485;-55
2022/04/14 01:12:20;;;;;;;37.00;17.20;;;;;;;7.80;55.55;100603.21;106110;1274;22531;-54
2022/04/14 01:14:52;;;;;;;36.10;16.50;;;;;;;7.78;55.62;100603.91;106190;1273;22519;-53
2022/04/14 01:17:24;;;;;;;40.20;17.60;;;;;;;7.76;55.61;100600.90;106055;1274;22615;-54
2022/04/14 01:19:55;;;;;;;40.30;18.20;;;;;;;7.75;55.67;100595.63;106213;1275;22628;-54
2022/04/14 01:22:31;;;;;;;38.30;16.90;;;;;;;7.72;55.72;100592.21;106117;1273;22544;-54
2022/04/14 01:25:03;;;;;;;39.00;16.70;;;;;;;7.70;55.75;100593.65;106122;1273;24128;-55
2022/04/14 01:27:35;;;;;;;40.00;17.20;;;;;;;7.68;55.75;100595.63;106215;1273;22556;-55
2022/04/14 01:30:08;;;;;;;39.10;17.10;;;;;;;7.65;55.84;100595.64;106085;1273;22548;-56
2022/04/14 01:32:39;;;;;;;38.90;17.50;;;;;;;7.63;55.81;100598.27;106125;1273;22675;-53
2022/04/14 01:35:11;;;;;;;38.20;16.90;;;;;;;7.61;55.82;100598.81;106144;1273;22530;-53
2022/04/14 01:37:43;;;;;;;36.40;15.70;;;;;;;7.58;55.90;100603.03;106144;1273;25250;-56
2022/04/14 01:40:15;;;;;;;35.30;15.10;;;;;;;7.56;55.86;100597.25;106136;1273;22536;-52
2022/04/14 01:42:47;;;;;;;39.40;17.50;;;;;;;7.54;55.86;100599.77;106084;1272;22981;-55
2022/04/14 01:45:19;;;;;;;35.30;16.40;;;;;;;7.50;55.91;100598.32;106066;1274;22511;-55
2022/04/14 01:47:50;;;;;;;41.30;17.60;;;;;;;7.48;55.99;100595.46;105981;1274;25249;-53
2022/04/14 01:50:22;;;;;;;40.60;17.30;;;;;;;7.46;56.03;100596.15;106193;1273;22525;-52
2022/04/14 01:52:53;;;;;;;38.20;16.70;;;;;;;7.44;55.98;100594.80;105967;1274;25576;-55
2022/04/14 01:55:25;;;;;;;35.90;15.60;;;;;;;7.41;56.03;100592.05;106219;1273;23920;-52
2022/04/14 01:57:56;;;;;;;31.70;16.50;;;;;;;7.40;56.06;100590.27;106288;1272;22625;-52
2022/04/14 02:00:30;;;;;;;35.70;15.80;;;;;;;7.37;56.03;100589.56;106168;1273;24334;-55
2022/04/14 02:03:01;;;;;;;41.10;17.80;;;;;;;7.33;56.14;100587.55;106312;1273;25344;-55
2022/04/14 02:05:37;;;;;;;45.30;17.60;;;;;;;7.27;56.31;100588.88;106304;1273;24300;-51
2022/04/14 02:08:09;;;;;;;46.10;16.60;;;;;;;7.15;56.56;100587.99;105693;1273;22544;-57
2022/04/14 02:10:41;;;;;;;47.70;17.60;;;;;;;7.03;56.75;100585.16;105789;1273;25451;-57
2022/04/14 02:13:13;;;;;;;56.40;18.30;;;;;;;6.94;56.99;100586.02;105655;1273;22540;-59
2022/04/14 02:15:44;;;;;;;54.00;20.40;;;;;;;6.87;57.24;100584.56;105730;1273;22996;-56
2022/04/14 02:18:16;;;;;;;44.10;17.20;;;;;;;6.77;57.47;100584.81;105699;1274;22623;-57
2022/04/14 02:20:47;;;;;;;42.40;17.40;;;;;;;6.68;57.63;100582.24;105529;1273;22694;-58
2022/04/14 02:23:19;;;;;;;43.10;16.70;;;;;;;6.61;57.83;100584.06;105563;1274;22537;-57
2022/04/14 02:25:51;;;;;;;42.50;17.30;;;;;;;6.53;57.94;100588.98;105636;1274;22576;-58
2022/04/14 02:28:23;;;;;;;49.70;18.50;;;;;;;6.48;57.95;100584.93;105690;1274;22535;-57
2022/04/14 02:30:54;;;;;;;45.60;17.60;;;;;;;6.47;57.97;100586.63;105641;1274;25507;-59
2022/04/14 02:33:26;;;;;;;50.90;17.60;;;;;;;6.46;57.85;100586.49;105639;1274;22803;-57
2022/04/14 02:35:57;;;;;;;52.50;17.50;;;;;;;6.46;57.76;100581.73;105607;1274;23678;-58
2022/04/14 02:38:29;;;;;;;44.60;18.00;;;;;;;6.48;57.87;100580.40;105571;1274;22743;-56
2022/04/14 02:41:00;;;;;;;36.80;16.40;;;;;;;6.49;57.92;100580.20;105667;1274;23071;-58
2022/04/14 02:43:31;;;;;;;36.10;16.70;;;;;;;6.50;57.89;100580.49;105664;1274;23211;-57
2022/04/14 02:46:04;;;;;;;41.80;17.20;;;;;;;6.51;57.82;100578.25;105700;1274;24361;-58
2022/04/14 02:48:36;;;;;;;40.40;17.30;;;;;;;6.53;57.95;100574.08;105696;1275;22559;-59
2022/04/14 02:51:08;;;;;;;39.20;17.10;;;;;;;6.53;58.02;100576.37;105621;1274;22727;-58
2022/04/14 02:53:39;;;;;;;48.50;17.90;;;;;;;6.52;58.13;100570.04;105677;1275;24332;-58
2022/04/14 02:56:11;;;;;;;39.20;17.20;;;;;;;6.53;58.07;100568.69;105619;1276;22567;-59
2022/04/14 02:58:42;;;;;;;41.70;17.50;;;;;;;6.53;58.08;100567.27;105589;1274;24330;-60
2022/04/14 03:01:14;;;;;;;44.40;18.50;;;;;;;6.52;58.07;100561.17;105747;1274;23852;-57
2022/04/14 03:03:45;;;;;;;41.40;18.60;;;;;;;6.51;58.04;100566.60;105700;1274;22546;-56
2022/04/14 03:06:16;;;;;;;45.50;18.20;;;;;;;6.50;58.09;100568.00;105637;1275;24371;-58
2022/04/14 03:08:48;;;;;;;44.40;19.50;;;;;;;6.47;58.19;100565.70;105553;1272;24294;-57
2022/04/14 03:11:20;;;;;;;42.60;18.50;;;;;;;6.46;58.27;100566.30;105549;1273;25253;-57
2022/04/14 03:13:51;;;;;;;42.50;20.00;;;;;;;6.43;58.35;100568.44;105670;1273;22770;-59
2022/04/14 03:16:22;;;;;;;43.30;17.30;;;;;;;6.39;58.52;100568.81;105543;1273;22569;-59
2022/04/14 03:18:54;;;;;;;43.90;17.40;;;;;;;6.33;58.60;100569.05;105622;1273;26381;-55
2022/04/14 03:21:26;;;;;;;39.00;16.60;;;;;;;6.28;58.52;100564.62;105670;1273;22539;-55
2022/04/14 03:23:57;;;;;;;37.00;15.90;;;;;;;6.24;58.56;100561.80;105559;1273;24239;-57
2022/04/14 03:26:29;;;;;;;39.00;18.10;;;;;;;6.22;58.49;100559.98;105640;1273;22983;-57
2022/04/14 03:29:01;;;;;;;38.60;17.00;;;;;;;6.19;58.54;100557.77;105600;1273;22567;-58
2022/04/14 03:31:32;;;;;;;34.70;16.30;;;;;;;6.16;58.60;100555.16;105549;1273;22551;-58
2022/04/14 03:34:04;;;;;;;42.30;19.00;;;;;;;6.13;58.64;100554.45;105716;1273;24441;-54
2022/04/14 03:36:35;;;;;;;39.90;17.70;;;;;;;6.09;58.86;100552.92;105785;1273;24398;-54
2022/04/14 03:39:06;;;;;;;43.80;18.20;;;;;;;6.05;58.89;100552.23;105599;1273;22596;-58
2022/04/14 03:41:37;;;;;;;43.80;19.30;;;;;;;6.01;58.85;100550.23;105639;1273;22563;-55
2022/04/14 03:44:10;;;;;;;46.30;19.20;;;;;;;5.99;59.01;100553.23;105668;1273;24239;-58
2022/04/14 03:46:41;;;;;;;41.80;18.30;;;;;;;5.95;59.21;100548.13;105613;1273;24306;-58
2022/04/14 03:49:13;;;;;;;44.90;19.40;;;;;;;5.91;59.07;100546.19;105563;1273;22689;-57
2022/04/14 03:51:44;;;;;;;45.60;19.80;;;;;;;5.88;59.19;100549.19;105678;1273;22532;-56
2022/04/14 03:54:17;;;;;;;42.80;18.90;;;;;;;5.83;59.34;100550.49;105540;1273;22588;-56
2022/04/14 03:56:50;;;;;;;37.90;17.60;;;;;;;5.80;59.28;100553.34;105459;1274;25656;-58
2022/04/14 03:59:22;;;;;;;42.80;18.80;;;;;;;5.77;59.50;100550.42;105620;1273;22621;-54
2022/04/14 04:01:53;;;;;;;36.50;16.60;;;;;;;5.73;59.55;100547.98;105524;1275;23055;-57
2022/04/14 04:04:27;;;;;;;34.30;16.80;;;;;;;5.71;59.45;100548.77;105521;1274;25334;-57
2022/04/14 04:06:59;;;;;;;35.60;15.80;;;;;;;5.69;59.34;100543.50;105549;1273;22558;-56
2022/04/14 04:09:32;;;;;;;39.90;16.80;;;;;;;5.69;59.49;100545.16;105700;1273;22640;-57
2022/04/14 04:12:03;;;;;;;41.30;17.50;;;;;;;5.69;59.43;100543.52;105563;1275;23711;-57
2022/04/14 04:14:35;;;;;;;44.00;18.00;;;;;;;5.68;59.50;100543.38;105579;1273;22545;-55
2022/04/14 04:17:07;;;;;;;41.00;16.90;;;;;;;5.68;59.50;100546.14;105864;1273;26430;-57
2022/04/14 04:19:39;;;;;;;45.20;18.50;;;;;;;5.69;59.61;100540.91;105579;1273;22545;-58
2022/04/14 04:22:11;;;;;;;46.60;18.90;;;;;;;5.68;59.78;100540.45;105515;1273;25371;-57
2022/04/14 04:24:43;;;;;;;43.30;18.50;;;;;;;5.67;59.86;100545.23;105580;1273;22612;-55
2022/04/14 04:27:14;;;;;;;43.90;19.20;;;;;;;5.66;59.94;100546.84;105678;1275;24442;-56
2022/04/14 04:29:46;;;;;;;38.90;18.30;;;;;;;5.64;59.96;100549.83;105605;1273;25328;-54
2022/04/14 04:32:18;;;;;;;43.00;18.00;;;;;;;5.63;60.10;100547.23;105600;1273;23177;-55
2022/04/14 04:34:49;;;;;;;43.70;18.10;;;;;;;5.62;60.11;100547.42;105523;1273;24260;-56
2022/04/14 04:37:21;;;;;;;40.60;19.40;;;;;;;5.61;60.05;100544.36;105526;1273;22645;-54
2022/04/14 04:39:52;;;;;;;49.90;21.60;;;;;;;5.61;60.22;100540.63;105713;1273;25323;-57
2022/04/14 04:42:24;;;;;;;46.40;22.70;;;;;;;5.61;60.55;100536.61;105508;1273;24338;-57
2022/04/14 04:44:55;;;;;;;54.30;24.10;;;;;;;5.58;60.45;100529.11;105499;1274;26524;-55
2022/04/14 04:47:27;;;;;;;50.90;24.20;;;;;;;5.59;60.57;100531.69;105520;1273;25384;-58
2022/04/14 04:50:00;;;;;;;47.20;22.50;;;;;;;5.61;60.75;100524.02;105546;1273;22551;-57
2022/04/14 04:52:31;;;;;;;45.80;20.20;;;;;;;5.64;60.63;100521.41;105639;1274;24243;-55
2022/04/14 04:55:03;;;;;;;47.00;20.90;;;;;;;5.68;60.54;100529.52;105493;1273;22554;-55
2022/04/14 04:57:35;;;;;;;43.10;19.20;;;;;;;5.73;60.70;100529.16;105878;1273;22616;-59
2022/04/14 05:00:10;;;;;;;47.20;20.50;;;;;;;5.79;60.57;100536.36;105524;1273;22695;-55
2022/04/14 05:02:42;;;;;;;46.80;19.90;;;;;;;5.84;60.72;100537.17;105490;1273;25569;-55
2022/04/14 05:05:14;;;;;;;39.70;19.60;;;;;;;5.89;60.74;100539.24;105550;1273;24604;-54
2022/04/14 05:07:46;;;;;;;45.00;20.90;;;;;;;5.96;60.90;100534.55;105616;1274;25287;-54
2022/04/14 05:10:17;;;;;;;41.80;20.00;;;;;;;6.04;60.94;100533.27;106144;1273;26637;-54
2022/04/14 05:12:51;;;;;;;45.20;20.60;;;;;;;6.11;60.89;100533.45;105650;1275;22596;-59
2022/04/14 05:15:23;;;;;;;48.60;22.00;;;;;;;6.17;60.88;100537.46;105556;1273;24862;-55
2022/04/14 05:17:54;;;;;;;51.10;22.20;;;;;;;6.22;60.89;100536.98;105434;1273;24376;-56
2022/04/14 05:20:26;;;;;;;46.00;20.30;;;;;;;6.28;60.93;100542.02;105631;1273;24304;-56
2022/04/14 05:22:57;;;;;;;50.20;19.00;;;;;;;6.35;60.94;100540.24;105559;1273;22557;-57
2022/04/14 05:25:30;;;;;;;48.80;21.60;;;;;;;6.40;60.80;100544.59;105045;1273;420852;-57
2022/04/14 05:28:02;;;;;;;42.40;19.40;;;;;;;6.45;60.81;100547.61;107392;1274;22557;-57
2022/04/14 05:30:33;;;;;;;43.60;18.60;;;;;;;6.49;60.84;100549.54;109084;1273;22460;-55
2022/04/14 05:33:10;;;;;;;36.40;17.50;;;;;;;6.55;60.97;100552.06;107443;1274;23004;-56
2022/04/14 05:35:45;;;;;;;41.40;18.40;;;;;;;6.61;60.93;100552.91;105530;1274;24398;-57
2022/04/14 05:38:16;;;;;;;38.00;16.50;;;;;;;6.66;61.23;100548.32;105491;1274;24282;-56
2022/04/14 05:40:48;;;;;;;35.70;15.60;;;;;;;6.73;61.27;100552.36;106762;1274;23632;-58
2022/04/14 05:43:21;;;;;;;44.20;18.30;;;;;;;6.79;61.35;100549.86;106500;1273;22735;-58
2022/04/14 05:45:56;;;;;;;48.10;19.60;;;;;;;6.86;61.17;100552.70;105795;1266;24398;-60
2022/04/14 05:48:28;;;;;;;43.00;19.10;;;;;;;6.95;60.89;100553.70;105791;1272;25422;-60
2022/04/14 05:51:00;;;;;;;45.80;17.70;;;;;;;7.03;60.97;100553.59;105615;1273;24327;-58
2022/04/14 05:53:31;;;;;;;73.20;33.70;;;;;;;7.12;60.88;100556.77;105685;1272;22591;-55
2022/04/14 05:56:03;;;;;;;63.70;28.70;;;;;;;7.22;60.98;100552.39;105667;1272;25418;-57
2022/04/14 05:58:37;;;;;;;50.80;25.70;;;;;;;7.32;60.86;100556.77;105554;1272;22553;-55
2022/04/14 06:01:12;;;;;;;44.10;21.00;;;;;;;7.43;60.85;100563.56;105764;1272;25450;-58
2022/04/14 06:03:43;;;;;;;39.20;20.10;;;;;;;7.54;60.81;100562.08;105443;1272;22575;-57
2022/04/14 06:06:15;;;;;;;49.10;23.80;;;;;;;7.64;60.72;100563.84;105595;1272;22830;-57
2022/04/14 06:08:46;;;;;;;47.20;22.20;;;;;;;7.74;60.83;100560.55;105700;1272;22528;-58
2022/04/14 06:11:19;;;;;;;52.00;21.60;;;;;;;7.85;61.06;100562.30;105553;1272;24312;-57
2022/04/14 06:13:50;;;;;;;45.70;20.30;;;;;;;7.96;60.75;100559.65;105659;1272;22699;-57
2022/04/14 06:16:22;;;;;;;43.30;18.00;;;;;;;8.06;60.68;100558.42;105586;1272;22648;-58
2022/04/14 06:18:54;;;;;;;43.40;18.60;;;;;;;8.15;60.80;100562.27;105630;1272;25263;-58
2022/04/14 06:21:26;;;;;;;45.40;18.90;;;;;;;8.26;60.77;100562.13;105566;1272;24436;-55
2022/04/14 06:23:57;;;;;;;47.40;20.90;;;;;;;8.35;60.80;100561.39;105532;1272;22713;-57
2022/04/14 06:26:29;;;;;;;39.70;17.60;;;;;;;8.46;60.98;100558.35;105594;1272;44466;-56
2022/04/14 06:29:00;;;;;;;37.10;17.50;;;;;;;8.59;60.98;100561.77;105601;1272;27390;-56
2022/04/14 06:31:32;;;;;;;38.90;18.30;;;;;;;8.72;60.95;100564.84;105552;1272;25352;-57
2022/04/14 06:34:05;;;;;;;41.30;18.70;;;;;;;8.85;61.02;100562.10;105683;1272;24343;-54
2022/04/14 06:36:38;;;;;;;41.50;19.30;;;;;;;8.97;61.08;100550.91;105635;1272;25431;-60
2022/04/14 06:39:12;;;;;;;40.80;19.40;;;;;;;9.09;60.84;100552.93;105618;1272;24404;-59
2022/04/14 06:41:44;;;;;;;41.30;18.20;;;;;;;9.20;60.76;100553.80;105388;1272;22650;-57
2022/04/14 06:44:16;;;;;;;40.40;17.50;;;;;;;9.31;60.72;100552.56;106357;1272;26818;-54
2022/04/14 06:46:49;;;;;;;36.40;17.70;;;;;;;9.42;60.55;100552.20;105511;1272;27059;-57
2022/04/14 06:49:21;;;;;;;37.90;17.90;;;;;;;9.56;60.46;100551.20;105546;1272;24246;-57
2022/04/14 06:51:53;;;;;;;39.00;17.90;;;;;;;9.70;60.51;100554.23;105717;1272;22824;-57
2022/04/14 06:54:28;;;;;;;39.40;18.60;;;;;;;9.85;60.39;100550.73;105651;1272;22558;-57
2022/04/14 06:57:06;;;;;;;40.40;17.90;;;;;;;10.01;60.52;100555.83;105600;1272;22927;-60
2022/04/14 06:59:40;;;;;;;36.00;16.50;;;;;;;10.20;60.40;100548.23;105923;1272;22576;-58
2022/04/14 07:02:17;;;;;;;34.00;15.80;;;;;;;10.40;60.32;100548.59;105840;1272;23021;-58
2022/04/14 07:04:51;;;;;;;33.60;15.30;;;;;;;10.57;60.20;100549.51;105771;1272;22603;-59
2022/04/14 07:07:22;;;;;;;31.90;15.40;;;;;;;10.81;60.08;100548.03;105783;1272;22532;-56
2022/04/14 07:09:56;;;;;;;36.40;16.30;;;;;;;11.05;59.82;100543.79;105677;1272;25352;-58
2022/04/14 07:12:28;;;;;;;32.80;14.50;;;;;;;11.26;59.55;100543.73;106010;1272;22532;-56
2022/04/14 07:15:00;;;;;;;33.00;13.30;;;;;;;11.42;59.35;100542.79;105631;1272;25272;-56
2022/04/14 07:17:33;;;;;;;34.90;14.50;;;;;;;11.59;59.08;100544.61;105608;1272;24473;-57
2022/04/14 07:20:09;;;;;;;30.70;13.30;;;;;;;11.76;58.98;100543.91;106021;1270;23307;-59
2022/04/14 07:22:50;;;;;;;30.20;13.90;;;;;;;11.92;58.45;100543.95;106321;1272;22582;-58
2022/04/14 07:25:21;;;;;;;;;;;;;;;12.06;58.35;100540.84;105782;1272;25642;-60
2022/04/14 07:27:53;;;;;;;31.80;13.40;;;;;;;12.22;58.21;100532.83;105813;1272;23595;-55
2022/04/14 07:30:26;;;;;;;33.40;14.10;;;;;;;12.40;58.09;100529.81;105699;1271;22557;-58
2022/04/14 07:33:00;;;;;;;38.10;16.50;;;;;;;12.57;57.85;100531.88;106052;1272;24251;-58
2022/04/14 07:35:34;;;;;;;37.60;14.70;;;;;;;12.73;57.75;100533.23;105898;1272;22607;-58
2022/04/14 07:38:09;;;;;;;28.30;12.10;;;;;;;12.88;57.22;100527.85;105815;1274;24234;-60
2022/04/14 07:40:42;;;;;;;27.90;11.80;;;;;;;13.06;56.86;100526.27;105798;1273;25652;-58
2022/04/14 07:43:15;;;;;;;32.40;13.10;;;;;;;13.22;56.68;100526.66;105851;1272;22582;-59
2022/04/14 07:45:48;;;;;;;29.10;12.30;;;;;;;13.40;56.79;100525.10;105689;1272;22680;-58
2022/04/14 07:48:21;;;;;;;26.00;11.40;;;;;;;13.55;56.64;100523.39;105647;1272;24162;-59
2022/04/14 07:50:53;;;;;;;30.50;11.50;;;;;;;13.72;56.01;100525.98;105737;1272;24733;-58
2022/04/14 07:53:25;;;;;;;26.20;10.70;;;;;;;13.90;56.30;100524.73;105703;1272;24238;-56
2022/04/14 07:55:56;;;;;;;28.70;12.30;;;;;;;14.10;56.14;100522.33;105857;1272;22549;-57
2022/04/14 07:58:28;;;;;;;26.20;11.10;;;;;;;14.28;55.78;100521.28;105850;1272;25331;-55
2022/04/14 08:00:59;;;;;;;29.60;12.40;;;;;;;14.42;55.51;100523.59;105841;1272;22796;-56
2022/04/14 08:03:35;;;;;;;27.80;11.80;;;;;;;14.54;55.39;100523.39;105848;1272;22567;-56
2022/04/14 08:06:07;;;;;;;30.60;12.80;;;;;;;14.67;55.23;100523.47;105596;1272;22628;-57
2022/04/14 08:08:39;;;;;;;26.70;11.60;;;;;;;14.80;55.10;100524.17;105912;1272;24249;-59
2022/04/14 08:11:11;;;;;;;28.10;12.00;;;;;;;14.92;55.04;100526.75;105906;1272;24278;-56
2022/04/14 08:13:42;;;;;;;32.90;12.30;;;;;;;15.06;54.76;100529.02;105811;1272;22553;-55
2022/04/14 08:16:14;;;;;;;25.20;11.50;;;;;;;15.16;54.83;100523.83;106094;1272;26034;-56
2022/04/14 08:18:46;;;;;;;27.10;11.50;;;;;;;15.26;54.45;100523.70;105821;1272;22553;-59
2022/04/14 08:21:20;;;;;;;28.50;12.60;;;;;;;15.36;54.27;100522.77;105630;1272;22679;-61
2022/04/14 08:23:53;;;;;;;26.30;11.80;;;;;;;15.48;54.26;100519.78;105946;1273;24124;-59
2022/04/14 08:26:27;;;;;;;27.00;11.80;;;;;;;15.57;54.32;100520.79;106227;1272;41445;-56
2022/04/14 08:29:00;;;;;;;27.20;11.90;;;;;;;15.67;54.04;100522.76;105575;1273;24666;-56
2022/04/14 08:31:33;;;;;;;24.80;11.40;;;;;;;15.77;53.88;100521.70;105638;1272;22570;-58
2022/04/14 08:34:06;;;;;;;30.70;13.50;;;;;;;15.87;53.82;100522.39;105684;1272;23039;-58
2022/04/14 08:36:38;;;;;;;24.20;10.60;;;;;;;15.98;53.87;100518.32;105739;1272;23771;-59
2022/04/14 08:39:10;;;;;;;24.00;11.00;;;;;;;16.07;53.21;100515.73;105852;1273;22700;-58
2022/04/14 08:41:45;;;;;;;24.50;11.10;;;;;;;16.14;53.29;100514.70;105911;1272;24237;-58
2022/04/14 08:44:25;;;;;;;25.80;11.50;;;;;;;16.24;53.13;100511.79;106031;1272;25344;-60
2022/04/14 08:46:59;;;;;;;26.10;10.40;;;;;;;16.35;52.85;100505.80;105951;1272;23004;-59
2022/04/14 08:49:32;;;;;;;26.00;9.20;;;;;;;16.43;52.66;100501.25;105708;1272;22616;-57
2022/04/14 08:52:14;;;;;;;29.90;10.10;;;;;;;16.52;52.24;100497.46;105785;1273;23106;-60
2022/04/14 08:54:47;;;;;;;21.70;7.50;;;;;;;16.64;51.96;100499.40;105770;1273;22983;-59
2022/04/14 08:57:20;;;;;;;21.80;8.50;;;;;;;16.75;51.34;100499.23;105775;1272;22556;-58
2022/04/14 08:59:52;;;;;;;21.30;7.50;;;;;;;16.85;51.02;100498.63;106051;1273;22521;-57
2022/04/14 09:02:23;;;;;;;19.50;6.90;;;;;;;16.94;51.23;100492.26;105650;1271;22601;-57
2022/04/14 09:04:56;;;;;;;23.80;7.50;;;;;;;17.03;50.82;100496.59;105757;1271;24423;-56
2022/04/14 09:07:28;;;;;;;18.30;5.60;;;;;;;17.11;50.03;100491.85;105766;1272;22550;-55
2022/04/14 09:10:00;;;;;;;20.90;5.60;;;;;;;17.21;49.67;100491.75;106284;1271;22778;-57
2022/04/14 09:12:33;;;;;;;16.70;5.20;;;;;;;17.29;49.43;100491.41;106308;1272;24135;-57
2022/04/14 09:15:05;;;;;;;15.80;4.70;;;;;;;17.39;49.09;100489.36;105694;1272;22530;-58
2022/04/14 09:17:37;;;;;;;20.00;6.00;;;;;;;17.47;48.33;100491.18;105697;1272;22578;-57
2022/04/14 09:20:31;;;;;;;20.50;6.20;;;;;;;17.51;48.33;100489.23;105678;1273;26719;-57
2022/04/14 09:23:27;;;;;;;17.00;4.50;;;;;;;17.59;47.91;100489.66;105921;1273;22547;-57
2022/04/14 09:26:12;;;;;;;16.20;5.10;;;;;;;17.67;47.27;100486.48;106067;1272;69115;-59
2022/04/14 09:29:00;;;;;;;20.30;5.80;;;;;;;17.73;47.24;100488.09;106075;1273;24239;-58
2022/04/14 09:31:46;;;;;;;20.90;4.70;;;;;;;17.80;47.09;100488.30;105802;1273;24388;-58
2022/04/14 09:34:19;;;;;;;13.10;3.40;;;;;;;17.88;46.79;100486.71;105676;1272;25251;-60
2022/04/14 09:37:08;;;;;;;10.40;3.10;;;;;;;17.98;46.17;100482.89;105673;1274;25310;-59
2022/04/14 09:39:53;;;;;;;15.10;3.40;;;;;;;18.08;46.12;100479.00;105637;1274;24284;-59
2022/04/14 09:42:26;;;;;;;11.10;2.10;;;;;;;18.20;46.05;100471.15;105799;1274;22554;-59
2022/04/14 09:45:17;;;;;;;13.80;2.60;;;;;;;18.37;45.90;100476.86;105741;1274;25546;-59
2022/04/14 09:47:50;;;;;;;11.50;2.70;;;;;;;18.52;45.54;100472.39;105693;1273;25266;-58
2022/04/14 09:50:31;;;;;;;9.30;2.50;;;;;;;18.61;44.64;100466.34;105785;1273;22578;-57
2022/04/14 09:53:07;;;;;;;9.80;2.20;;;;;;;18.70;44.26;100460.33;105800;1274;24391;-59
2022/04/14 09:55:40;;;;;;;14.40;2.80;;;;;;;18.78;44.07;100458.60;105693;1273;22544;-59
2022/04/14 09:58:17;;;;;;;14.00;2.30;;;;;;;18.88;43.91;100457.05;105920;1272;26595;-59
2022/04/14 10:00:51;;;;;;;11.10;2.10;;;;;;;18.95;43.02;100461.14;105847;1274;22730;-58
2022/04/14 10:03:24;;;;;;;20.30;9.40;;;;;;;19.00;42.99;100460.66;105826;1274;24302;-60
2022/04/14 10:05:58;;;;;;;19.40;7.80;;;;;;;19.07;42.57;100457.90;105839;1274;24300;-58
2022/04/14 10:08:31;;;;;;;14.30;3.80;;;;;;;19.12;42.34;100449.55;105817;1274;22694;-60
2022/04/14 10:11:09;;;;;;;10.90;2.20;;;;;;;19.17;42.25;100450.61;105968;1272;22697;-60
2022/04/14 10:13:41;;;;;;;9.80;2.20;;;;;;;19.27;41.89;100448.64;105912;1274;22572;-59
2022/04/14 10:16:13;;;;;;;11.30;2.20;;;;;;;19.33;41.65;100447.08;105701;1274;22556;-59
2022/04/14 10:18:46;;;;;;;8.60;1.90;;;;;;;19.39;41.00;100447.80;105974;1274;22708;-61
2022/04/14 10:21:18;;;;;;;11.20;2.50;;;;;;;19.41;41.04;100444.42;105886;1274;22531;-60
2022/04/14 10:23:50;;;;;;;8.90;1.90;;;;;;;19.46;41.04;100447.08;105860;1275;24272;-60
2022/04/14 10:26:23;;;;;;;11.20;2.40;;;;;;;19.54;41.22;100441.10;106003;1274;35462;-60
2022/04/14 10:28:55;;;;;;;10.40;2.20;;;;;;;19.59;40.75;100437.86;105704;1274;25325;-60
2022/04/14 10:31:28;;;;;;;10.40;2.20;;;;;;;19.65;40.21;100437.12;105872;1273;24285;-60
2022/04/14 10:34:11;;;;;;;10.40;1.80;;;;;;;19.72;39.64;100435.33;105763;1272;22558;-60
2022/04/14 10:36:45;;;;;;;5.90;1.70;;;;;;;19.76;39.99;100436.08;106119;1274;22696;-60
2022/04/14 10:39:19;;;;;;;13.20;2.10;;;;;;;19.80;39.84;100433.14;105786;1274;25095;-58
2022/04/14 10:41:54;;;;;;;9.50;1.70;;;;;;;19.86;39.69;100431.08;105637;1274;22581;-59
2022/04/14 10:44:44;;;;;;;9.00;1.80;;;;;;;19.90;39.24;100431.42;103396;1273;5575570;-60
2022/04/14 10:47:35;;;;;;;9.30;2.50;;;;;;;19.98;39.41;100428.81;107170;1265;25312;-51
2022/04/14 10:50:21;;;;;;;8.60;2.20;;;;;;;20.05;38.96;100425.05;105693;1271;23308;-53
2022/04/14 10:53:11;;;;;;;10.40;1.70;;;;;;;20.11;38.68;100427.88;107002;1271;22531;-55
2022/04/14 10:55:43;;;;;;;;;;;;;;;20.18;38.38;100420.82;106087;1271;25217;-53
2022/04/14 10:58:48;;;;;;;13.30;2.50;;;;;;;20.24;38.72;100422.74;105767;1273;22526;-53
2022/04/14 11:02:02;;;;;;;7.90;1.80;;;;;;;20.28;38.40;100416.09;105751;1273;25952;-54
2022/04/14 11:04:36;;;;;;;12.20;3.00;;;;;;;20.36;38.36;100411.82;105739;1273;24352;-52
2022/04/14 11:07:15;;;;;;;10.50;2.80;;;;;;;20.40;38.28;100415.71;105631;1273;26578;-54
2022/04/14 11:09:54;;;;;;;12.30;3.90;;;;;;;20.47;38.55;100417.90;106045;1274;25053;-51
2022/04/14 11:12:28;;;;;;;16.90;2.90;;;;;;;20.54;38.76;100409.20;105748;1275;22818;-54
2022/04/14 11:15:02;;;;;;;10.10;2.10;;;;;;;20.63;38.35;100411.61;105600;1275;22532;-54
2022/04/14 11:17:53;;;;;;;9.20;2.40;;;;;;;20.69;37.86;100407.71;105684;1275;22605;-52
2022/04/14 11:20:54;;;;;;;10.90;2.00;;;;;;;20.66;37.62;100408.48;105756;1274;22563;-53
2022/04/14 11:23:36;;;;;;;11.50;2.90;;;;;;;20.69;38.28;100403.67;105672;1274;24283;-53
2022/04/14 11:26:12;;;;;;;13.10;3.40;;;;;;;20.77;38.72;100403.91;105486;1274;43485;-56
2022/04/14 11:28:57;;;;;;;15.00;4.00;;;;;;;20.84;38.28;100401.65;105918;1274;22551;-55
2022/04/14 11:31:29;;;;;;;11.20;3.30;;;;;;;20.87;38.05;100403.25;105562;1274;25131;-51
2022/04/14 11:34:01;;;;;;;10.70;2.40;;;;;;;20.88;38.10;100399.82;105738;1273;22564;-55
2022/04/14 11:36:46;;;;;;;11.70;3.00;;;;;;;20.86;38.01;100399.48;105734;1273;26441;-55
2022/04/14 11:39:25;;;;;;;10.60;2.50;;;;;;;20.91;37.51;100398.31;105845;1275;26871;-51